Главная страница
METAR-TAF:

METAR-TAF

Аэропорты :

Ивало, Финляндия

широта: 68-37N, долгота: 027-25E, высота над уровнем моря: 147 м

Текущие метеонаблюдения

Эта сводка был подготовлена 23 минут назад, в 02:20 UTC
Ветер 9 Узел от юго-западный
Температура 9°C
Влажность 93%
Давление 994 hPa
Видимость: 8000 м
Сплошная облачность на высоте 800 фута
небольшой дождь

METAR: EFIV 210220Z AUTO 23009KT 8000 -RA OVC008 09/08 Q0994

Время: 05:43 (02:43 UTC)


TAF: отсутствует

Метеонаблюдения и прогнозы для более 4000 аэропортов (сводки METAR и TAF).

Имеющиеся станции представлены на карте желтыми и красными точками.

Чтобы увидеть название станции, наведите на нее мышь.

Затем щелкните, чтобы увидеть метеонаблюдения и метеопрогнозы.

Управление картой: чтобы увеличить масштаб, щелкните зеленые кнопки с черным крестиком; чтобы уменьшить масштаб, щелкните зеленую кнопку с тире; для просмотра соседних карт щелкайте зеленые стрелки.


METAR-TAF: